sensor_id;sensor_type;location;lat;lon;timestamp;P1;durP1;ratioP1;P2;durP2;ratioP2
43146;SDS011;28752;48.266;7.402;2023-04-16T00:01:30;6.40;;;5.13;;
43146;SDS011;28752;48.266;7.402;2023-04-16T00:03:55;6.40;;;4.97;;
43146;SDS011;28752;48.266;7.402;2023-04-16T00:06:21;6.50;;;4.90;;
43146;SDS011;28752;48.266;7.402;2023-04-16T00:08:46;6.53;;;5.25;;
43146;SDS011;28752;48.266;7.402;2023-04-16T00:11:12;6.00;;;4.70;;
43146;SDS011;28752;48.266;7.402;2023-04-16T00:13:37;7.10;;;5.03;;
43146;SDS011;28752;48.266;7.402;2023-04-16T00:16:03;7.20;;;5.57;;
43146;SDS011;28752;48.266;7.402;2023-04-16T00:18:28;7.00;;;4.93;;
43146;SDS011;28752;48.266;7.402;2023-04-16T00:20:57;6.78;;;4.80;;
43146;SDS011;28752;48.266;7.402;2023-04-16T00:23:23;6.50;;;4.72;;
43146;SDS011;28752;48.266;7.402;2023-04-16T00:25:49;7.43;;;5.22;;
43146;SDS011;28752;48.266;7.402;2023-04-16T00:28:15;6.35;;;4.80;;
43146;SDS011;28752;48.266;7.402;2023-04-16T00:30:40;6.57;;;4.50;;
43146;SDS011;28752;48.266;7.402;2023-04-16T00:33:05;5.33;;;3.77;;
43146;SDS011;28752;48.266;7.402;2023-04-16T00:35:31;5.43;;;3.37;;
43146;SDS011;28752;48.266;7.402;2023-04-16T00:37:56;5.50;;;3.30;;
43146;SDS011;28752;48.266;7.402;2023-04-16T00:40:21;5.13;;;3.33;;
43146;SDS011;28752;48.266;7.402;2023-04-16T00:42:47;5.27;;;3.43;;
43146;SDS011;28752;48.266;7.402;2023-04-16T00:45:12;6.57;;;3.57;;
43146;SDS011;28752;48.266;7.402;2023-04-16T00:47:38;5.33;;;3.80;;
43146;SDS011;28752;48.266;7.402;2023-04-16T00:50:03;5.53;;;3.33;;
43146;SDS011;28752;48.266;7.402;2023-04-16T00:52:30;5.57;;;3.65;;
43146;SDS011;28752;48.266;7.402;2023-04-16T00:54:57;5.13;;;3.13;;
43146;SDS011;28752;48.266;7.402;2023-04-16T00:59:48;5.75;;;3.22;;
43146;SDS011;28752;48.266;7.402;2023-04-16T01:02:14;4.70;;;3.30;;
43146;SDS011;28752;48.266;7.402;2023-04-16T01:04:40;4.72;;;3.30;;
43146;SDS011;28752;48.266;7.402;2023-04-16T01:07:05;4.78;;;3.28;;
43146;SDS011;28752;48.266;7.402;2023-04-16T01:09:31;5.20;;;3.43;;
43146;SDS011;28752;48.266;7.402;2023-04-16T01:11:56;5.70;;;3.33;;
43146;SDS011;28752;48.266;7.402;2023-04-16T01:14:21;4.90;;;3.40;;
43146;SDS011;28752;48.266;7.402;2023-04-16T01:16:47;5.50;;;4.00;;
43146;SDS011;28752;48.266;7.402;2023-04-16T01:19:12;6.57;;;4.40;;
43146;SDS011;28752;48.266;7.402;2023-04-16T01:21:37;5.60;;;4.33;;
43146;SDS011;28752;48.266;7.402;2023-04-16T01:24:03;6.33;;;4.50;;
43146;SDS011;28752;48.266;7.402;2023-04-16T01:26:29;5.77;;;4.20;;
43146;SDS011;28752;48.266;7.402;2023-04-16T01:28:55;6.32;;;5.00;;
43146;SDS011;28752;48.266;7.402;2023-04-16T01:31:20;7.83;;;5.40;;
43146;SDS011;28752;48.266;7.402;2023-04-16T01:33:45;5.90;;;4.80;;
43146;SDS011;28752;48.266;7.402;2023-04-16T01:36:11;6.13;;;4.63;;
43146;SDS011;28752;48.266;7.402;2023-04-16T01:38:36;7.07;;;5.30;;
43146;SDS011;28752;48.266;7.402;2023-04-16T01:41:01;7.47;;;5.57;;
43146;SDS011;28752;48.266;7.402;2023-04-16T01:43:27;8.20;;;6.50;;
43146;SDS011;28752;48.266;7.402;2023-04-16T01:45:58;7.77;;;5.87;;
43146;SDS011;28752;48.266;7.402;2023-04-16T01:48:36;7.65;;;6.50;;
43146;SDS011;28752;48.266;7.402;2023-04-16T01:51:01;8.37;;;6.40;;
43146;SDS011;28752;48.266;7.402;2023-04-16T01:53:28;8.75;;;6.82;;
43146;SDS011;28752;48.266;7.402;2023-04-16T01:55:54;9.05;;;6.68;;
43146;SDS011;28752;48.266;7.402;2023-04-16T01:58:19;8.13;;;6.40;;
43146;SDS011;28752;48.266;7.402;2023-04-16T02:00:45;7.97;;;6.43;;
43146;SDS011;28752;48.266;7.402;2023-04-16T02:03:10;8.33;;;6.10;;
43146;SDS011;28752;48.266;7.402;2023-04-16T02:05:35;7.73;;;5.70;;
43146;SDS011;28752;48.266;7.402;2023-04-16T02:08:01;7.87;;;5.40;;
43146;SDS011;28752;48.266;7.402;2023-04-16T02:10:26;7.23;;;5.00;;
43146;SDS011;28752;48.266;7.402;2023-04-16T02:12:51;9.30;;;4.93;;
43146;SDS011;28752;48.266;7.402;2023-04-16T02:15:17;6.43;;;4.70;;
43146;SDS011;28752;48.266;7.402;2023-04-16T02:17:42;5.43;;;3.80;;
43146;SDS011;28752;48.266;7.402;2023-04-16T02:20:08;5.23;;;3.57;;
43146;SDS011;28752;48.266;7.402;2023-04-16T02:22:34;5.40;;;3.42;;
43146;SDS011;28752;48.266;7.402;2023-04-16T02:25:00;4.37;;;3.00;;
43146;SDS011;28752;48.266;7.402;2023-04-16T02:27:25;4.78;;;2.85;;
43146;SDS011;28752;48.266;7.402;2023-04-16T02:29:51;4.87;;;2.70;;
43146;SDS011;28752;48.266;7.402;2023-04-16T02:32:16;4.57;;;3.03;;
43146;SDS011;28752;48.266;7.402;2023-04-16T02:34:42;5.10;;;3.38;;
43146;SDS011;28752;48.266;7.402;2023-04-16T02:37:07;5.77;;;3.50;;
43146;SDS011;28752;48.266;7.402;2023-04-16T02:39:33;5.10;;;3.70;;
43146;SDS011;28752;48.266;7.402;2023-04-16T02:41:58;7.50;;;4.50;;
43146;SDS011;28752;48.266;7.402;2023-04-16T02:44:24;6.63;;;4.00;;
43146;SDS011;28752;48.266;7.402;2023-04-16T02:46:50;8.67;;;4.77;;
43146;SDS011;28752;48.266;7.402;2023-04-16T02:49:15;5.93;;;4.50;;
43146;SDS011;28752;48.266;7.402;2023-04-16T02:51:40;6.40;;;4.63;;
43146;SDS011;28752;48.266;7.402;2023-04-16T02:54:06;6.53;;;5.27;;
43146;SDS011;28752;48.266;7.402;2023-04-16T02:56:31;6.87;;;5.10;;
43146;SDS011;28752;48.266;7.402;2023-04-16T02:58:57;6.93;;;5.07;;
43146;SDS011;28752;48.266;7.402;2023-04-16T03:01:22;7.03;;;5.30;;
43146;SDS011;28752;48.266;7.402;2023-04-16T03:03:47;6.70;;;5.53;;
43146;SDS011;28752;48.266;7.402;2023-04-16T03:06:13;11.03;;;7.47;;
43146;SDS011;28752;48.266;7.402;2023-04-16T03:08:38;10.30;;;6.90;;
43146;SDS011;28752;48.266;7.402;2023-04-16T03:11:03;8.83;;;6.97;;
43146;SDS011;28752;48.266;7.402;2023-04-16T03:13:29;9.10;;;7.03;;
43146;SDS011;28752;48.266;7.402;2023-04-16T03:15:54;11.10;;;7.80;;
43146;SDS011;28752;48.266;7.402;2023-04-16T03:18:20;10.73;;;7.83;;
43146;SDS011;28752;48.266;7.402;2023-04-16T03:20:45;10.33;;;7.93;;
43146;SDS011;28752;48.266;7.402;2023-04-16T03:23:15;10.23;;;8.13;;
43146;SDS011;28752;48.266;7.402;2023-04-16T03:25:41;10.20;;;8.07;;
43146;SDS011;28752;48.266;7.402;2023-04-16T03:28:08;10.07;;;8.18;;
43146;SDS011;28752;48.266;7.402;2023-04-16T03:30:33;11.10;;;8.13;;
43146;SDS011;28752;48.266;7.402;2023-04-16T03:32:59;11.23;;;8.70;;
43146;SDS011;28752;48.266;7.402;2023-04-16T03:35:25;9.38;;;8.00;;
43146;SDS011;28752;48.266;7.402;2023-04-16T03:37:50;9.90;;;8.00;;
43146;SDS011;28752;48.266;7.402;2023-04-16T03:40:15;10.30;;;8.30;;
43146;SDS011;28752;48.266;7.402;2023-04-16T03:42:41;10.13;;;8.00;;
43146;SDS011;28752;48.266;7.402;2023-04-16T03:45:06;13.03;;;8.40;;
43146;SDS011;28752;48.266;7.402;2023-04-16T03:47:33;9.20;;;7.70;;
43146;SDS011;28752;48.266;7.402;2023-04-16T03:49:58;9.67;;;7.83;;
43146;SDS011;28752;48.266;7.402;2023-04-16T03:52:24;10.40;;;7.57;;
43146;SDS011;28752;48.266;7.402;2023-04-16T03:54:49;9.63;;;7.97;;
43146;SDS011;28752;48.266;7.402;2023-04-16T03:57:14;10.13;;;7.47;;
43146;SDS011;28752;48.266;7.402;2023-04-16T03:59:40;8.07;;;6.67;;
43146;SDS011;28752;48.266;7.402;2023-04-16T04:02:05;7.57;;;6.00;;
43146;SDS011;28752;48.266;7.402;2023-04-16T04:04:30;7.20;;;5.77;;
43146;SDS011;28752;48.266;7.402;2023-04-16T04:06:56;8.47;;;6.47;;
43146;SDS011;28752;48.266;7.402;2023-04-16T04:09:21;7.97;;;6.43;;
43146;SDS011;28752;48.266;7.402;2023-04-16T04:11:46;8.53;;;6.20;;
43146;SDS011;28752;48.266;7.402;2023-04-16T04:14:12;8.13;;;6.40;;
43146;SDS011;28752;48.266;7.402;2023-04-16T04:16:37;9.43;;;6.87;;
43146;SDS011;28752;48.266;7.402;2023-04-16T04:19:02;8.67;;;6.47;;
43146;SDS011;28752;48.266;7.402;2023-04-16T04:21:28;7.87;;;6.70;;
43146;SDS011;28752;48.266;7.402;2023-04-16T04:23:53;8.50;;;6.68;;
43146;SDS011;28752;48.266;7.402;2023-04-16T04:26:19;8.63;;;6.90;;
43146;SDS011;28752;48.266;7.402;2023-04-16T04:28:45;8.30;;;6.72;;
43146;SDS011;28752;48.266;7.402;2023-04-16T04:31:11;7.57;;;6.22;;
43146;SDS011;28752;48.266;7.402;2023-04-16T04:33:36;9.45;;;7.38;;
43146;SDS011;28752;48.266;7.402;2023-04-16T04:36:02;9.10;;;7.03;;
43146;SDS011;28752;48.266;7.402;2023-04-16T04:38:27;9.80;;;6.97;;
43146;SDS011;28752;48.266;7.402;2023-04-16T04:40:54;8.45;;;6.53;;
43146;SDS011;28752;48.266;7.402;2023-04-16T04:43:19;9.25;;;6.80;;
43146;SDS011;28752;48.266;7.402;2023-04-16T04:45:45;10.27;;;7.50;;
43146;SDS011;28752;48.266;7.402;2023-04-16T04:48:11;10.55;;;8.45;;
43146;SDS011;28752;48.266;7.402;2023-04-16T04:50:37;9.90;;;8.23;;
43146;SDS011;28752;48.266;7.402;2023-04-16T04:53:02;10.60;;;7.80;;
43146;SDS011;28752;48.266;7.402;2023-04-16T04:55:33;10.20;;;8.07;;
43146;SDS011;28752;48.266;7.402;2023-04-16T04:57:59;9.40;;;7.43;;
43146;SDS011;28752;48.266;7.402;2023-04-16T05:00:25;10.57;;;7.83;;
43146;SDS011;28752;48.266;7.402;2023-04-16T05:02:50;10.33;;;8.07;;
43146;SDS011;28752;48.266;7.402;2023-04-16T05:05:16;10.73;;;8.40;;
43146;SDS011;28752;48.266;7.402;2023-04-16T05:07:41;10.90;;;8.17;;
43146;SDS011;28752;48.266;7.402;2023-04-16T05:10:07;10.65;;;7.43;;
43146;SDS011;28752;48.266;7.402;2023-04-16T05:12:32;9.93;;;7.55;;
43146;SDS011;28752;48.266;7.402;2023-04-16T05:14:58;10.43;;;7.77;;
43146;SDS011;28752;48.266;7.402;2023-04-16T05:17:23;9.03;;;7.20;;
43146;SDS011;28752;48.266;7.402;2023-04-16T05:19:49;10.03;;;7.57;;
43146;SDS011;28752;48.266;7.402;2023-04-16T05:22:14;9.73;;;6.75;;
43146;SDS011;28752;48.266;7.402;2023-04-16T05:24:43;9.60;;;7.05;;
43146;SDS011;28752;48.266;7.402;2023-04-16T05:27:08;9.25;;;7.45;;
43146;SDS011;28752;48.266;7.402;2023-04-16T05:29:33;10.43;;;6.67;;
43146;SDS011;28752;48.266;7.402;2023-04-16T05:31:59;10.20;;;7.00;;
43146;SDS011;28752;48.266;7.402;2023-04-16T05:34:24;8.80;;;6.43;;
43146;SDS011;28752;48.266;7.402;2023-04-16T05:36:49;9.00;;;7.27;;
43146;SDS011;28752;48.266;7.402;2023-04-16T05:39:15;10.73;;;7.40;;
43146;SDS011;28752;48.266;7.402;2023-04-16T05:41:41;10.05;;;7.18;;
43146;SDS011;28752;48.266;7.402;2023-04-16T05:44:06;10.23;;;6.50;;
43146;SDS011;28752;48.266;7.402;2023-04-16T05:46:31;10.53;;;7.53;;
43146;SDS011;28752;48.266;7.402;2023-04-16T05:48:57;9.60;;;7.13;;
43146;SDS011;28752;48.266;7.402;2023-04-16T05:51:22;9.90;;;6.50;;
43146;SDS011;28752;48.266;7.402;2023-04-16T05:53:50;8.30;;;6.20;;
43146;SDS011;28752;48.266;7.402;2023-04-16T05:56:15;8.47;;;6.63;;
43146;SDS011;28752;48.266;7.402;2023-04-16T05:58:40;8.90;;;6.60;;
43146;SDS011;28752;48.266;7.402;2023-04-16T06:01:06;10.07;;;7.70;;
43146;SDS011;28752;48.266;7.402;2023-04-16T06:03:31;9.73;;;6.43;;
43146;SDS011;28752;48.266;7.402;2023-04-16T06:05:57;10.10;;;6.80;;
43146;SDS011;28752;48.266;7.402;2023-04-16T06:08:22;11.63;;;6.60;;
43146;SDS011;28752;48.266;7.402;2023-04-16T06:10:47;8.87;;;6.50;;
43146;SDS011;28752;48.266;7.402;2023-04-16T06:13:13;8.90;;;6.60;;
43146;SDS011;28752;48.266;7.402;2023-04-16T06:15:38;9.37;;;6.60;;
43146;SDS011;28752;48.266;7.402;2023-04-16T06:18:03;10.67;;;6.90;;
43146;SDS011;28752;48.266;7.402;2023-04-16T06:20:29;9.60;;;6.63;;
43146;SDS011;28752;48.266;7.402;2023-04-16T06:22:55;9.15;;;6.05;;
43146;SDS011;28752;48.266;7.402;2023-04-16T06:25:21;7.15;;;5.45;;
43146;SDS011;28752;48.266;7.402;2023-04-16T06:27:46;9.83;;;5.70;;
43146;SDS011;28752;48.266;7.402;2023-04-16T06:30:12;7.17;;;5.60;;
43146;SDS011;28752;48.266;7.402;2023-04-16T06:32:38;8.02;;;6.00;;
43146;SDS011;28752;48.266;7.402;2023-04-16T06:35:04;7.45;;;5.68;;
43146;SDS011;28752;48.266;7.402;2023-04-16T06:37:30;9.57;;;6.20;;
43146;SDS011;28752;48.266;7.402;2023-04-16T06:39:55;8.30;;;5.50;;
43146;SDS011;28752;48.266;7.402;2023-04-16T06:42:21;7.70;;;5.87;;
43146;SDS011;28752;48.266;7.402;2023-04-16T06:44:47;8.30;;;6.00;;
43146;SDS011;28752;48.266;7.402;2023-04-16T06:47:12;8.23;;;6.00;;
43146;SDS011;28752;48.266;7.402;2023-04-16T06:49:38;8.10;;;5.90;;
43146;SDS011;28752;48.266;7.402;2023-04-16T06:52:04;9.05;;;5.95;;
43146;SDS011;28752;48.266;7.402;2023-04-16T06:54:29;8.30;;;5.90;;
43146;SDS011;28752;48.266;7.402;2023-04-16T06:56:55;8.57;;;6.22;;
43146;SDS011;28752;48.266;7.402;2023-04-16T06:59:20;9.90;;;6.40;;
43146;SDS011;28752;48.266;7.402;2023-04-16T07:01:45;8.33;;;6.57;;
43146;SDS011;28752;48.266;7.402;2023-04-16T07:04:11;8.80;;;6.10;;
43146;SDS011;28752;48.266;7.402;2023-04-16T07:06:36;9.57;;;6.90;;
43146;SDS011;28752;48.266;7.402;2023-04-16T07:09:01;8.83;;;6.10;;
43146;SDS011;28752;48.266;7.402;2023-04-16T07:11:27;8.10;;;6.07;;
43146;SDS011;28752;48.266;7.402;2023-04-16T07:13:52;8.43;;;6.13;;
43146;SDS011;28752;48.266;7.402;2023-04-16T07:16:18;8.53;;;6.13;;
43146;SDS011;28752;48.266;7.402;2023-04-16T07:18:43;8.75;;;6.90;;
43146;SDS011;28752;48.266;7.402;2023-04-16T07:21:09;8.43;;;6.47;;
43146;SDS011;28752;48.266;7.402;2023-04-16T07:23:34;9.63;;;7.43;;
43146;SDS011;28752;48.266;7.402;2023-04-16T07:26:00;8.13;;;6.27;;
43146;SDS011;28752;48.266;7.402;2023-04-16T07:28:25;7.70;;;5.97;;
43146;SDS011;28752;48.266;7.402;2023-04-16T07:30:50;12.07;;;7.90;;
43146;SDS011;28752;48.266;7.402;2023-04-16T07:33:16;9.67;;;6.03;;
43146;SDS011;28752;48.266;7.402;2023-04-16T07:35:41;33.97;;;21.40;;
43146;SDS011;28752;48.266;7.402;2023-04-16T07:38:06;10.90;;;7.73;;
43146;SDS011;28752;48.266;7.402;2023-04-16T07:40:32;8.77;;;5.53;;
43146;SDS011;28752;48.266;7.402;2023-04-16T07:42:57;7.97;;;6.17;;
43146;SDS011;28752;48.266;7.402;2023-04-16T07:45:22;9.07;;;5.50;;
43146;SDS011;28752;48.266;7.402;2023-04-16T07:47:48;6.83;;;5.23;;
43146;SDS011;28752;48.266;7.402;2023-04-16T07:50:13;8.27;;;5.23;;
43146;SDS011;28752;48.266;7.402;2023-04-16T07:52:40;7.75;;;5.43;;
43146;SDS011;28752;48.266;7.402;2023-04-16T07:55:07;8.45;;;5.65;;
43146;SDS011;28752;48.266;7.402;2023-04-16T07:57:32;8.40;;;6.35;;
43146;SDS011;28752;48.266;7.402;2023-04-16T07:59:58;9.37;;;6.50;;
43146;SDS011;28752;48.266;7.402;2023-04-16T08:02:24;8.43;;;5.78;;
43146;SDS011;28752;48.266;7.402;2023-04-16T08:04:50;7.07;;;5.45;;
43146;SDS011;28752;48.266;7.402;2023-04-16T08:07:15;6.23;;;4.70;;
43146;SDS011;28752;48.266;7.402;2023-04-16T08:09:47;8.47;;;5.33;;
43146;SDS011;28752;48.266;7.402;2023-04-16T08:12:15;11.05;;;7.72;;
43146;SDS011;28752;48.266;7.402;2023-04-16T08:14:42;10.38;;;7.32;;
43146;SDS011;28752;48.266;7.402;2023-04-16T08:17:07;9.52;;;6.90;;
43146;SDS011;28752;48.266;7.402;2023-04-16T08:19:33;8.03;;;5.67;;
43146;SDS011;28752;48.266;7.402;2023-04-16T08:21:58;8.30;;;5.70;;
43146;SDS011;28752;48.266;7.402;2023-04-16T08:24:24;9.38;;;6.47;;
43146;SDS011;28752;48.266;7.402;2023-04-16T08:26:49;9.13;;;6.57;;
43146;SDS011;28752;48.266;7.402;2023-04-16T08:29:14;11.20;;;7.67;;
43146;SDS011;28752;48.266;7.402;2023-04-16T08:34:06;9.02;;;5.88;;
43146;SDS011;28752;48.266;7.402;2023-04-16T08:36:32;13.80;;;11.30;;
43146;SDS011;28752;48.266;7.402;2023-04-16T08:38:57;10.57;;;8.10;;
43146;SDS011;28752;48.266;7.402;2023-04-16T08:41:22;13.10;;;10.67;;
43146;SDS011;28752;48.266;7.402;2023-04-16T08:43:49;8.48;;;6.43;;
43146;SDS011;28752;48.266;7.402;2023-04-16T08:46:17;9.65;;;6.60;;
43146;SDS011;28752;48.266;7.402;2023-04-16T08:48:46;8.88;;;7.63;;
43146;SDS011;28752;48.266;7.402;2023-04-16T08:51:14;9.63;;;7.20;;
43146;SDS011;28752;48.266;7.402;2023-04-16T08:53:46;9.05;;;6.68;;
43146;SDS011;28752;48.266;7.402;2023-04-16T08:56:15;9.60;;;6.82;;
43146;SDS011;28752;48.266;7.402;2023-04-16T08:58:47;9.85;;;7.80;;
43146;SDS011;28752;48.266;7.402;2023-04-16T09:01:15;10.90;;;8.07;;
43146;SDS011;28752;48.266;7.402;2023-04-16T09:03:42;8.02;;;6.43;;
43146;SDS011;28752;48.266;7.402;2023-04-16T09:06:10;12.40;;;7.40;;
43146;SDS011;28752;48.266;7.402;2023-04-16T09:08:36;10.43;;;7.82;;
43146;SDS011;28752;48.266;7.402;2023-04-16T09:11:02;8.23;;;6.32;;
43146;SDS011;28752;48.266;7.402;2023-04-16T09:13:29;10.60;;;6.32;;
43146;SDS011;28752;48.266;7.402;2023-04-16T09:15:55;8.68;;;6.50;;
43146;SDS011;28752;48.266;7.402;2023-04-16T09:18:21;10.35;;;7.65;;
43146;SDS011;28752;48.266;7.402;2023-04-16T09:20:47;7.93;;;6.22;;
43146;SDS011;28752;48.266;7.402;2023-04-16T09:23:15;13.65;;;8.90;;
43146;SDS011;28752;48.266;7.402;2023-04-16T09:25:41;8.05;;;6.05;;
43146;SDS011;28752;48.266;7.402;2023-04-16T09:28:06;8.93;;;6.70;;
43146;SDS011;28752;48.266;7.402;2023-04-16T09:30:31;9.57;;;7.00;;
43146;SDS011;28752;48.266;7.402;2023-04-16T09:35:51;10.23;;;7.25;;
43146;SDS011;28752;48.266;7.402;2023-04-16T09:38:17;11.63;;;7.13;;
43146;SDS011;28752;48.266;7.402;2023-04-16T09:40:44;17.40;;;8.13;;
43146;SDS011;28752;48.266;7.402;2023-04-16T09:43:12;11.95;;;8.20;;
43146;SDS011;28752;48.266;7.402;2023-04-16T09:45:52;12.23;;;8.25;;
43146;SDS011;28752;48.266;7.402;2023-04-16T09:48:28;15.93;;;11.48;;
43146;SDS011;28752;48.266;7.402;2023-04-16T09:50:54;12.98;;;8.68;;
43146;SDS011;28752;48.266;7.402;2023-04-16T09:53:26;12.82;;;9.07;;
43146;SDS011;28752;48.266;7.402;2023-04-16T09:56:04;13.82;;;9.38;;
43146;SDS011;28752;48.266;7.402;2023-04-16T09:58:30;15.27;;;9.82;;
43146;SDS011;28752;48.266;7.402;2023-04-16T10:01:06;15.40;;;10.57;;
43146;SDS011;28752;48.266;7.402;2023-04-16T10:03:34;17.13;;;9.82;;
43146;SDS011;28752;48.266;7.402;2023-04-16T10:08:58;15.40;;;10.30;;
43146;SDS011;28752;48.266;7.402;2023-04-16T10:11:23;13.82;;;10.00;;
43146;SDS011;28752;48.266;7.402;2023-04-16T10:13:50;13.68;;;10.45;;
43146;SDS011;28752;48.266;7.402;2023-04-16T10:16:15;15.38;;;11.30;;
43146;SDS011;28752;48.266;7.402;2023-04-16T10:23:36;14.65;;;10.02;;
43146;SDS011;28752;48.266;7.402;2023-04-16T10:26:03;14.85;;;11.00;;
43146;SDS011;28752;48.266;7.402;2023-04-16T10:28:30;16.05;;;11.25;;
43146;SDS011;28752;48.266;7.402;2023-04-16T10:30:56;16.80;;;11.48;;
43146;SDS011;28752;48.266;7.402;2023-04-16T10:33:23;17.52;;;11.23;;
43146;SDS011;28752;48.266;7.402;2023-04-16T10:35:52;17.45;;;11.23;;
43146;SDS011;28752;48.266;7.402;2023-04-16T10:38:32;48.72;;;31.42;;
43146;SDS011;28752;48.266;7.402;2023-04-16T10:40:58;24.20;;;15.60;;
43146;SDS011;28752;48.266;7.402;2023-04-16T10:43:26;23.48;;;15.80;;
43146;SDS011;28752;48.266;7.402;2023-04-16T10:45:52;20.40;;;13.88;;
43146;SDS011;28752;48.266;7.402;2023-04-16T10:48:18;18.67;;;13.10;;
43146;SDS011;28752;48.266;7.402;2023-04-16T10:50:52;17.43;;;13.00;;
43146;SDS011;28752;48.266;7.402;2023-04-16T10:53:24;18.00;;;12.40;;
43146;SDS011;28752;48.266;7.402;2023-04-16T10:55:55;17.80;;;13.02;;
43146;SDS011;28752;48.266;7.402;2023-04-16T10:58:27;16.35;;;11.02;;
43146;SDS011;28752;48.266;7.402;2023-04-16T11:00:53;23.75;;;13.68;;
43146;SDS011;28752;48.266;7.402;2023-04-16T11:03:19;20.00;;;13.90;;
43146;SDS011;28752;48.266;7.402;2023-04-16T11:05:44;17.13;;;11.93;;
43146;SDS011;28752;48.266;7.402;2023-04-16T11:08:13;16.98;;;12.10;;
43146;SDS011;28752;48.266;7.402;2023-04-16T11:10:40;11.13;;;7.88;;
43146;SDS011;28752;48.266;7.402;2023-04-16T11:13:06;11.63;;;6.43;;
43146;SDS011;28752;48.266;7.402;2023-04-16T11:15:33;9.10;;;5.90;;
43146;SDS011;28752;48.266;7.402;2023-04-16T11:17:58;10.15;;;6.22;;
43146;SDS011;28752;48.266;7.402;2023-04-16T11:20:25;9.43;;;5.85;;
43146;SDS011;28752;48.266;7.402;2023-04-16T11:22:52;8.00;;;5.60;;
43146;SDS011;28752;48.266;7.402;2023-04-16T11:25:19;9.38;;;5.55;;
43146;SDS011;28752;48.266;7.402;2023-04-16T11:27:48;7.75;;;4.88;;
43146;SDS011;28752;48.266;7.402;2023-04-16T11:30:15;9.43;;;5.50;;
43146;SDS011;28752;48.266;7.402;2023-04-16T11:32:42;8.07;;;5.05;;
43146;SDS011;28752;48.266;7.402;2023-04-16T11:35:15;8.65;;;5.45;;
43146;SDS011;28752;48.266;7.402;2023-04-16T11:37:42;6.80;;;4.57;;
43146;SDS011;28752;48.266;7.402;2023-04-16T11:40:08;7.15;;;3.97;;
43146;SDS011;28752;48.266;7.402;2023-04-16T11:42:34;6.32;;;4.07;;
43146;SDS011;28752;48.266;7.402;2023-04-16T11:45:07;6.15;;;3.88;;
43146;SDS011;28752;48.266;7.402;2023-04-16T11:47:46;6.72;;;4.20;;
43146;SDS011;28752;48.266;7.402;2023-04-16T11:50:26;6.38;;;4.00;;
43146;SDS011;28752;48.266;7.402;2023-04-16T11:52:53;6.68;;;4.50;;
43146;SDS011;28752;48.266;7.402;2023-04-16T11:55:20;8.23;;;5.57;;
43146;SDS011;28752;48.266;7.402;2023-04-16T11:57:46;7.15;;;4.72;;
43146;SDS011;28752;48.266;7.402;2023-04-16T12:00:12;7.82;;;4.90;;
43146;SDS011;28752;48.266;7.402;2023-04-16T12:02:42;7.32;;;4.00;;
43146;SDS011;28752;48.266;7.402;2023-04-16T12:05:34;7.25;;;4.00;;
43146;SDS011;28752;48.266;7.402;2023-04-16T12:08:02;6.80;;;4.38;;
43146;SDS011;28752;48.266;7.402;2023-04-16T12:10:31;7.88;;;4.60;;
43146;SDS011;28752;48.266;7.402;2023-04-16T12:13:11;7.57;;;4.70;;
43146;SDS011;28752;48.266;7.402;2023-04-16T12:15:47;8.00;;;4.38;;
43146;SDS011;28752;48.266;7.402;2023-04-16T12:18:14;6.47;;;4.00;;
43146;SDS011;28752;48.266;7.402;2023-04-16T12:20:40;6.65;;;4.38;;
43146;SDS011;28752;48.266;7.402;2023-04-16T12:23:06;7.68;;;4.50;;
43146;SDS011;28752;48.266;7.402;2023-04-16T12:25:35;8.02;;;4.60;;
43146;SDS011;28752;48.266;7.402;2023-04-16T12:28:06;7.90;;;4.85;;
43146;SDS011;28752;48.266;7.402;2023-04-16T12:30:32;7.53;;;4.67;;
43146;SDS011;28752;48.266;7.402;2023-04-16T12:33:13;7.73;;;4.77;;
43146;SDS011;28752;48.266;7.402;2023-04-16T12:35:40;6.93;;;4.70;;
43146;SDS011;28752;48.266;7.402;2023-04-16T12:38:07;7.10;;;4.43;;
43146;SDS011;28752;48.266;7.402;2023-04-16T12:40:33;7.53;;;4.63;;
43146;SDS011;28752;48.266;7.402;2023-04-16T12:43:00;7.07;;;4.65;;
43146;SDS011;28752;48.266;7.402;2023-04-16T12:45:25;7.35;;;4.50;;
43146;SDS011;28752;48.266;7.402;2023-04-16T12:47:50;6.97;;;4.63;;
43146;SDS011;28752;48.266;7.402;2023-04-16T12:50:16;11.23;;;7.77;;
43146;SDS011;28752;48.266;7.402;2023-04-16T12:52:42;8.40;;;5.50;;
43146;SDS011;28752;48.266;7.402;2023-04-16T12:55:07;7.33;;;5.10;;
43146;SDS011;28752;48.266;7.402;2023-04-16T12:57:33;7.53;;;5.13;;
43146;SDS011;28752;48.266;7.402;2023-04-16T12:59:58;6.73;;;4.60;;
43146;SDS011;28752;48.266;7.402;2023-04-16T13:02:24;6.77;;;4.80;;
43146;SDS011;28752;48.266;7.402;2023-04-16T13:04:50;8.43;;;5.35;;
43146;SDS011;28752;48.266;7.402;2023-04-16T13:09:42;7.68;;;5.28;;
43146;SDS011;28752;48.266;7.402;2023-04-16T13:12:07;8.27;;;5.20;;
43146;SDS011;28752;48.266;7.402;2023-04-16T13:14:33;8.20;;;5.07;;
43146;SDS011;28752;48.266;7.402;2023-04-16T13:16:58;8.85;;;5.05;;
43146;SDS011;28752;48.266;7.402;2023-04-16T13:19:25;7.18;;;4.95;;
43146;SDS011;28752;48.266;7.402;2023-04-16T13:21:50;7.47;;;5.07;;
43146;SDS011;28752;48.266;7.402;2023-04-16T13:24:16;8.17;;;5.67;;
43146;SDS011;28752;48.266;7.402;2023-04-16T13:26:41;9.00;;;5.93;;
43146;SDS011;28752;48.266;7.402;2023-04-16T13:29:07;9.07;;;5.82;;
43146;SDS011;28752;48.266;7.402;2023-04-16T13:31:33;9.38;;;6.10;;
43146;SDS011;28752;48.266;7.402;2023-04-16T13:33:58;9.90;;;6.33;;
43146;SDS011;28752;48.266;7.402;2023-04-16T13:36:24;9.80;;;6.40;;
43146;SDS011;28752;48.266;7.402;2023-04-16T13:38:50;8.93;;;5.60;;
43146;SDS011;28752;48.266;7.402;2023-04-16T13:41:15;8.97;;;6.40;;
43146;SDS011;28752;48.266;7.402;2023-04-16T13:43:40;10.57;;;7.43;;
43146;SDS011;28752;48.266;7.402;2023-04-16T13:46:06;10.30;;;7.10;;
43146;SDS011;28752;48.266;7.402;2023-04-16T13:48:31;8.80;;;6.23;;
43146;SDS011;28752;48.266;7.402;2023-04-16T13:50:56;8.40;;;5.50;;
43146;SDS011;28752;48.266;7.402;2023-04-16T13:53:22;9.50;;;6.30;;
43146;SDS011;28752;48.266;7.402;2023-04-16T13:55:47;11.03;;;6.60;;
43146;SDS011;28752;48.266;7.402;2023-04-16T13:58:13;9.27;;;6.22;;
43146;SDS011;28752;48.266;7.402;2023-04-16T14:00:39;11.50;;;7.85;;
43146;SDS011;28752;48.266;7.402;2023-04-16T14:03:04;10.77;;;7.37;;
43146;SDS011;28752;48.266;7.402;2023-04-16T14:05:30;10.98;;;7.05;;
43146;SDS011;28752;48.266;7.402;2023-04-16T14:07:56;13.00;;;8.70;;
43146;SDS011;28752;48.266;7.402;2023-04-16T14:10:21;11.40;;;7.63;;
43146;SDS011;28752;48.266;7.402;2023-04-16T14:12:46;11.60;;;7.10;;
43146;SDS011;28752;48.266;7.402;2023-04-16T14:15:12;9.83;;;6.43;;
43146;SDS011;28752;48.266;7.402;2023-04-16T14:20:04;9.45;;;6.75;;
43146;SDS011;28752;48.266;7.402;2023-04-16T14:22:30;9.23;;;6.03;;
43146;SDS011;28752;48.266;7.402;2023-04-16T14:24:56;9.87;;;6.93;;
43146;SDS011;28752;48.266;7.402;2023-04-16T14:27:21;9.67;;;7.17;;
43146;SDS011;28752;48.266;7.402;2023-04-16T14:29:47;8.43;;;5.90;;
43146;SDS011;28752;48.266;7.402;2023-04-16T14:32:12;10.10;;;7.23;;
43146;SDS011;28752;48.266;7.402;2023-04-16T14:34:37;10.20;;;6.17;;
43146;SDS011;28752;48.266;7.402;2023-04-16T14:37:03;8.83;;;6.10;;
43146;SDS011;28752;48.266;7.402;2023-04-16T14:39:28;9.50;;;6.80;;
43146;SDS011;28752;48.266;7.402;2023-04-16T14:41:54;10.80;;;7.00;;
43146;SDS011;28752;48.266;7.402;2023-04-16T14:44:19;23.10;;;15.33;;
43146;SDS011;28752;48.266;7.402;2023-04-16T14:46:45;12.65;;;9.50;;
43146;SDS011;28752;48.266;7.402;2023-04-16T14:49:10;13.50;;;10.07;;
43146;SDS011;28752;48.266;7.402;2023-04-16T14:51:36;14.03;;;9.37;;
43146;SDS011;28752;48.266;7.402;2023-04-16T14:54:01;11.57;;;7.23;;
43146;SDS011;28752;48.266;7.402;2023-04-16T14:56:26;10.60;;;7.03;;
43146;SDS011;28752;48.266;7.402;2023-04-16T14:58:52;9.60;;;6.90;;